createdAt,value
2023-02-28T00:00:56.162Z,101134.03
2023-02-28T00:02:57.976Z,101143.34
2023-02-28T00:05:01.986Z,101136.38
2023-02-28T00:07:03.443Z,101137.09
2023-02-28T00:09:04.823Z,101129.19
2023-02-28T00:11:08.857Z,101136.38
2023-02-28T00:13:10.303Z,101132.97
2023-02-28T00:15:12.189Z,101139.09
2023-02-28T00:17:16.806Z,101138.38
2023-02-28T00:19:18.205Z,101136.72
2023-02-28T00:21:20.724Z,101138.38
2023-02-28T00:23:22.185Z,101132.47
2023-02-28T00:25:25.739Z,101144.59
2023-02-28T00:27:27.281Z,101139.56
2023-02-28T00:29:28.794Z,101141.22
2023-02-28T00:31:30.579Z,101132.00
2023-02-28T00:33:32.105Z,101140.72
2023-02-28T00:35:33.522Z,101136.91
2023-02-28T00:37:34.978Z,101133.72
2023-02-28T00:39:38.136Z,101136.63
2023-02-28T00:41:39.544Z,101141.97
2023-02-28T00:43:41.158Z,101134.38
2023-02-28T00:45:42.590Z,101134.81
2023-02-28T00:47:44.132Z,101135.88
2023-02-28T00:49:45.583Z,101129.50
2023-02-28T00:51:47.567Z,101126.06
2023-02-28T00:53:48.978Z,101135.00
2023-02-28T00:55:51.513Z,101136.06
2023-02-28T00:57:56.677Z,101137.22
2023-02-28T00:59:58.101Z,101138.38
2023-02-28T01:01:59.830Z,101145.41
2023-02-28T01:04:01.450Z,101137.97
2023-02-28T01:06:03.087Z,101144.19
2023-02-28T01:08:04.820Z,101138.41
2023-02-28T01:10:06.709Z,101142.88
2023-02-28T01:12:09.136Z,101135.31
2023-02-28T01:14:15.092Z,101139.69
2023-02-28T01:16:16.597Z,101124.34
2023-02-28T01:18:18.563Z,101133.97
2023-02-28T01:20:20.140Z,101126.19
2023-02-28T01:22:21.599Z,101127.34
2023-02-28T01:24:23.021Z,101137.72
2023-02-28T01:26:25.159Z,101128.31
2023-02-28T01:28:26.646Z,101131.91
2023-02-28T01:30:28.800Z,101128.72
2023-02-28T01:32:30.219Z,101128.00
2023-02-28T01:34:31.698Z,101126.34
2023-02-28T01:36:33.112Z,101126.47
2023-02-28T01:38:34.751Z,101125.88
2023-02-28T01:40:36.137Z,101119.94
2023-02-28T01:42:37.604Z,101121.81
2023-02-28T01:45:16.196Z,101126.28
2023-02-28T01:47:17.965Z,101119.63
2023-02-28T01:49:20.053Z,101128.25
2023-02-28T01:51:30.581Z,101119.63
2023-02-28T01:53:37.641Z,101115.41
2023-02-28T01:55:41.377Z,101123.28
2023-02-28T01:57:47.914Z,101113.84
2023-02-28T01:59:55.413Z,101114.81
2023-02-28T02:01:57.066Z,101114.69
2023-02-28T02:04:02.676Z,101113.84
2023-02-28T02:06:04.294Z,101111.06
2023-02-28T02:08:09.953Z,101111.78
2023-02-28T02:10:15.788Z,101111.06
2023-02-28T02:12:57.434Z,101109.69
2023-02-28T02:15:26.531Z,101111.84
2023-02-28T02:17:37.662Z,101108.97
2023-02-28T02:19:55.392Z,101108.25
2023-02-28T02:22:16.132Z,101107.28
2023-02-28T02:24:39.126Z,101107.53
2023-02-28T02:26:45.531Z,101107.66
2023-02-28T02:29:09.000Z,101105.88
2023-02-28T02:31:49.179Z,101103.47
2023-02-28T02:34:15.342Z,101110.53
2023-02-28T02:36:27.546Z,101104.66
2023-02-28T02:38:51.920Z,101103.69
2023-02-28T02:41:09.355Z,101110.75
2023-02-28T02:43:26.883Z,101104.84
2023-02-28T02:45:36.858Z,101107.56
2023-02-28T02:47:39.823Z,101101.53
2023-02-28T02:49:46.474Z,101105.19
2023-02-28T02:51:49.251Z,101110.38
2023-02-28T02:53:58.792Z,101112.13
2023-02-28T02:56:02.102Z,101113.97
2023-02-28T02:58:08.235Z,101113.16
2023-02-28T03:00:10.998Z,101114.94
2023-02-28T03:02:17.327Z,101114.19
2023-02-28T03:04:22.300Z,101106.53
2023-02-28T03:06:23.885Z,101109.13
2023-02-28T03:08:26.608Z,101111.91
2023-02-28T03:10:41.355Z,101106.63
2023-02-28T03:12:57.618Z,101114.50
2023-02-28T03:15:07.829Z,101102.50
2023-02-28T03:17:28.130Z,101103.53
2023-02-28T03:19:47.743Z,101103.66
2023-02-28T03:22:11.001Z,101109.88
2023-02-28T03:24:30.684Z,101101.28
2023-02-28T03:26:35.262Z,101104.69
2023-02-28T03:28:52.250Z,101098.88
2023-02-28T03:30:58.740Z,101096.50
2023-02-28T03:33:24.051Z,101098.38
2023-02-28T03:36:00.546Z,101109.78
2023-02-28T03:38:26.920Z,101103.16
2023-02-28T03:40:31.618Z,101105.94
2023-02-28T03:42:37.013Z,101110.38
2023-02-28T03:44:46.517Z,101115.03
2023-02-28T03:46:55.305Z,101119.59
2023-02-28T03:49:03.117Z,101118.06
2023-02-28T03:51:10.233Z,101114.75
2023-02-28T03:53:20.430Z,101119.19
2023-02-28T03:55:22.372Z,101114.22
2023-02-28T03:57:42.380Z,101113.50
2023-02-28T03:59:57.028Z,101112.88
2023-02-28T04:01:59.363Z,101117.31
2023-02-28T04:04:01.358Z,101113.38
2023-02-28T04:06:02.863Z,101110.06
2023-02-28T04:08:05.854Z,101104.03
2023-02-28T04:10:07.889Z,101109.34
2023-02-28T04:12:09.631Z,101111.09
2023-02-28T04:14:12.351Z,101112.13
2023-02-28T04:16:24.504Z,101120.72
2023-02-28T04:18:33.666Z,101112.97
2023-02-28T04:20:35.048Z,101115.03
2023-02-28T04:22:37.338Z,101110.69
2023-02-28T04:24:42.393Z,101112.53
2023-02-28T04:26:46.673Z,101105.72
2023-02-28T04:28:48.037Z,101116.97
2023-02-28T04:30:56.198Z,101120.50
2023-02-28T04:32:57.563Z,101113.03
2023-02-28T04:34:58.960Z,101118.41
2023-02-28T04:37:16.490Z,101122.88
2023-02-28T04:39:19.440Z,101120.38
2023-02-28T04:41:21.626Z,101123.91
2023-02-28T04:43:23.061Z,101119.66
2023-02-28T04:45:24.615Z,101125.84
2023-02-28T04:47:26.014Z,101126.78
2023-02-28T04:49:27.448Z,101131.13
2023-02-28T04:51:29.122Z,101126.16
2023-02-28T04:53:31.147Z,101130.41
2023-02-28T04:55:32.551Z,101131.41
2023-02-28T04:57:33.945Z,101132.34
2023-02-28T04:59:35.325Z,101124.78
2023-02-28T05:01:37.393Z,101128.31
2023-02-28T05:03:41.480Z,101123.41
2023-02-28T05:05:42.905Z,101122.38
2023-02-28T05:07:45.053Z,101128.69
2023-02-28T05:09:46.423Z,101121.88
2023-02-28T05:11:47.848Z,101126.22
2023-02-28T05:13:49.996Z,101134.81
2023-02-28T05:15:51.450Z,101135.09
2023-02-28T05:17:52.852Z,101138.59
2023-02-28T05:19:55.845Z,101134.44
2023-02-28T05:22:03.479Z,101137.03
2023-02-28T05:24:12.915Z,101129.47
2023-02-28T05:26:14.291Z,101126.97
2023-02-28T05:28:15.692Z,101134.94
2023-02-28T05:30:17.388Z,101145.16
2023-02-28T05:32:18.820Z,101144.44
2023-02-28T05:34:20.333Z,101151.56
2023-02-28T05:36:22.130Z,101144.66
2023-02-28T05:38:23.605Z,101143.88
2023-02-28T05:40:25.004Z,101150.72
2023-02-28T05:42:26.429Z,101148.25
2023-02-28T05:44:27.914Z,101157.00
2023-02-28T05:46:29.339Z,101154.53
2023-02-28T05:48:30.829Z,101151.84
2023-02-28T05:50:32.221Z,101152.88
2023-02-28T05:52:33.666Z,101153.59
2023-02-28T05:54:35.105Z,101151.84
2023-02-28T05:56:38.648Z,101148.44
2023-02-28T05:58:40.176Z,101146.03
2023-02-28T06:00:42.418Z,101153.91
2023-02-28T06:02:43.954Z,101156.38
2023-02-28T06:04:46.192Z,101159.06
2023-02-28T06:06:49.673Z,101156.50
2023-02-28T06:08:51.045Z,101153.06
2023-02-28T06:10:52.642Z,101148.81
2023-02-28T06:12:54.057Z,101160.00
2023-02-28T06:14:55.593Z,101163.94
2023-02-28T06:16:58.994Z,101169.28
2023-02-28T06:19:02.792Z,101162.50
2023-02-28T06:21:04.519Z,101171.03
2023-02-28T06:23:05.944Z,101174.38
2023-02-28T06:25:08.403Z,101170.13
2023-02-28T06:27:09.837Z,101169.94
2023-02-28T06:29:11.272Z,101170.78
2023-02-28T06:31:15.781Z,101175.75
2023-02-28T06:33:17.245Z,101180.84
2023-02-28T06:35:18.844Z,101178.03
2023-02-28T06:37:20.405Z,101177.84
2023-02-28T06:39:21.858Z,101186.25
2023-02-28T06:41:27.716Z,101184.22
2023-02-28T06:43:32.446Z,101185.88
2023-02-28T06:45:33.974Z,101185.88
2023-02-28T06:47:37.437Z,101188.25
2023-02-28T06:49:40.013Z,101193.25
2023-02-28T06:51:45.845Z,101188.06
2023-02-28T06:53:47.540Z,101189.63
2023-02-28T06:55:48.930Z,101192.00
2023-02-28T06:57:51.546Z,101188.41
2023-02-28T06:59:52.942Z,101186.34
2023-02-28T07:01:54.398Z,101192.34
2023-02-28T07:03:55.894Z,101182.00
2023-02-28T07:05:57.405Z,101199.19
2023-02-28T07:07:58.818Z,101194.03
2023-02-28T07:10:00.291Z,101193.09
2023-02-28T07:12:01.686Z,101193.75
2023-02-28T07:14:03.257Z,101197.75
2023-02-28T07:16:07.125Z,101196.56
2023-02-28T07:18:08.509Z,101195.44
2023-02-28T07:20:10.505Z,101202.28
2023-02-28T07:22:12.652Z,101203.81
2023-02-28T07:24:16.761Z,101206.00
2023-02-28T07:26:20.114Z,101199.41
2023-02-28T07:28:21.687Z,101203.97
2023-02-28T07:30:23.441Z,101209.47
2023-02-28T07:32:24.889Z,101212.91
2023-02-28T07:34:26.937Z,101209.44
2023-02-28T07:36:28.328Z,101208.72
2023-02-28T07:38:29.697Z,101203.94
2023-02-28T07:40:31.325Z,101205.38
2023-02-28T07:42:33.027Z,101204.75
2023-02-28T07:44:34.548Z,101207.44
2023-02-28T07:46:37.702Z,101202.34
2023-02-28T07:48:39.393Z,101197.69
2023-02-28T07:50:40.816Z,101195.72
2023-02-28T07:52:42.282Z,101204.59
2023-02-28T07:54:43.705Z,101200.03
2023-02-28T07:56:45.100Z,101197.84
2023-02-28T07:58:46.575Z,101198.34
2023-02-28T08:00:48.053Z,101205.47
2023-02-28T08:02:49.669Z,101213.75
2023-02-28T08:04:51.304Z,101209.78
2023-02-28T08:06:57.322Z,101210.38
2023-02-28T08:08:58.744Z,101207.09
2023-02-28T08:11:01.998Z,101208.16
2023-02-28T08:13:03.495Z,101207.41
2023-02-28T08:15:05.293Z,101203.06
2023-02-28T08:17:07.287Z,101213.59
2023-02-28T08:19:08.739Z,101208.00
2023-02-28T08:21:11.125Z,101210.75
2023-02-28T08:23:12.563Z,101202.78
2023-02-28T08:25:14.316Z,101201.53
2023-02-28T08:27:15.985Z,101205.75
2023-02-28T08:29:17.806Z,101205.88
2023-02-28T08:31:19.906Z,101204.81
2023-02-28T08:33:22.198Z,101209.97
2023-02-28T08:35:24.848Z,101214.81
2023-02-28T08:37:26.417Z,101212.59
2023-02-28T08:39:27.785Z,101216.28
2023-02-28T08:41:29.462Z,101215.00
2023-02-28T08:43:31.107Z,101217.97
2023-02-28T08:45:32.578Z,101217.97
2023-02-28T08:47:34.018Z,101208.88
2023-02-28T08:49:35.574Z,101218.00
2023-02-28T08:51:37.032Z,101211.50
2023-02-28T08:53:40.149Z,101211.03
2023-02-28T08:55:41.604Z,101210.44
2023-02-28T08:57:43.055Z,101213.19
2023-02-28T08:59:44.458Z,101206.91
2023-02-28T09:01:45.941Z,101211.03
2023-02-28T09:03:49.661Z,101212.81
2023-02-28T09:05:59.359Z,101210.22
2023-02-28T09:08:00.756Z,101204.66
2023-02-28T09:10:02.225Z,101202.41
2023-02-28T09:12:04.400Z,101202.28
2023-02-28T09:14:05.896Z,101205.00
2023-02-28T09:16:11.356Z,101207.59
2023-02-28T09:18:13.356Z,101206.44
2023-02-28T09:20:14.797Z,101211.38
2023-02-28T09:22:16.838Z,101210.69
2023-02-28T09:24:19.087Z,101215.31
2023-02-28T09:26:24.601Z,101208.19
2023-02-28T09:28:26.169Z,101207.50
2023-02-28T09:30:28.009Z,101204.75
2023-02-28T09:32:29.533Z,101203.38
2023-02-28T09:34:38.005Z,101206.44
2023-02-28T09:36:45.347Z,101209.84
2023-02-28T09:38:48.952Z,101202.06
2023-02-28T09:40:54.977Z,101207.38
2023-02-28T09:42:58.368Z,101209.38
2023-02-28T09:45:02.931Z,101206.31
2023-02-28T09:47:29.108Z,101209.94
2023-02-28T09:49:41.888Z,101210.72
2023-02-28T09:51:44.800Z,101213.94
2023-02-28T09:53:50.434Z,101205.34
2023-02-28T09:56:06.623Z,101210.31
2023-02-28T09:58:21.748Z,101208.09
2023-02-28T10:00:26.322Z,101208.06
2023-02-28T10:02:46.170Z,101215.25
2023-02-28T10:04:56.183Z,101203.84
2023-02-28T10:06:58.804Z,101208.75
2023-02-28T10:09:04.476Z,101207.34
2023-02-28T10:11:11.459Z,101208.00
2023-02-28T10:13:40.654Z,101202.47
2023-02-28T10:15:43.335Z,101202.25
2023-02-28T10:17:55.445Z,101190.47
2023-02-28T10:20:18.984Z,101192.28
2023-02-28T10:22:25.329Z,101187.34
2023-02-28T10:24:36.556Z,101183.69
2023-02-28T10:26:38.034Z,101188.53
2023-02-28T10:28:40.437Z,101185.09
2023-02-28T10:30:46.476Z,101183.97
2023-02-28T10:32:54.435Z,101180.69
2023-02-28T10:35:07.917Z,101180.03
2023-02-28T10:37:11.758Z,101177.97
2023-02-28T10:39:35.583Z,101175.53
2023-02-28T10:41:43.919Z,101171.56
2023-02-28T10:43:48.392Z,101167.41
2023-02-28T10:46:11.275Z,101175.09
2023-02-28T10:48:15.361Z,101163.59
2023-02-28T10:50:45.209Z,101166.44
2023-02-28T10:52:46.664Z,101160.13
2023-02-28T10:54:48.083Z,101164.94
2023-02-28T10:57:18.636Z,101163.69
2023-02-28T10:59:32.011Z,101166.31
2023-02-28T11:01:36.559Z,101162.00
2023-02-28T11:03:38.006Z,101159.94
2023-02-28T11:05:39.439Z,101162.72
2023-02-28T11:07:53.042Z,101160.22
2023-02-28T11:09:57.695Z,101167.97
2023-02-28T11:11:59.708Z,101162.34
2023-02-28T11:14:06.713Z,101158.75
2023-02-28T11:16:11.292Z,101161.94
2023-02-28T11:18:12.678Z,101155.16
2023-02-28T11:20:24.441Z,101150.50
2023-02-28T11:22:31.451Z,101153.09
2023-02-28T11:24:45.157Z,101160.81
2023-02-28T11:26:49.788Z,101155.31
2023-02-28T11:29:05.184Z,101152.84
2023-02-28T11:31:17.404Z,101153.50
2023-02-28T11:33:47.070Z,101152.25
2023-02-28T11:35:50.906Z,101146.94
2023-02-28T11:37:53.109Z,101143.13
2023-02-28T11:39:55.087Z,101145.28
2023-02-28T11:42:12.412Z,101146.75
2023-02-28T11:44:35.171Z,101140.50
2023-02-28T11:47:18.022Z,101136.53
2023-02-28T11:49:46.510Z,101141.03
2023-02-28T11:51:58.991Z,101133.38
2023-02-28T11:54:19.005Z,101139.91
2023-02-28T11:56:44.568Z,101138.47
2023-02-28T11:59:19.694Z,101138.19
2023-02-28T12:01:37.729Z,101135.28
2023-02-28T12:03:42.555Z,101132.13
2023-02-28T12:06:01.738Z,101134.44
2023-02-28T12:08:18.106Z,101129.50
2023-02-28T12:10:24.699Z,101125.41
2023-02-28T12:12:44.748Z,101127.44
2023-02-28T12:15:06.122Z,101117.94
2023-02-28T12:17:56.076Z,101118.25
2023-02-28T12:20:14.788Z,101113.53
2023-02-28T12:22:32.352Z,101112.59
2023-02-28T12:24:42.841Z,101117.72
2023-02-28T12:26:49.296Z,101107.75
2023-02-28T12:28:59.931Z,101104.81
2023-02-28T12:31:12.127Z,101100.06
2023-02-28T12:33:17.300Z,101104.66
2023-02-28T12:35:35.712Z,101094.72
2023-02-28T12:37:39.293Z,101093.09
2023-02-28T12:39:50.556Z,101096.63
2023-02-28T12:41:57.645Z,101095.47
2023-02-28T12:44:04.779Z,101088.66
2023-02-28T12:46:11.949Z,101083.16
2023-02-28T12:48:20.589Z,101079.53
2023-02-28T12:50:22.641Z,101082.38
2023-02-28T12:52:38.583Z,101080.94
2023-02-28T12:54:53.261Z,101084.28
2023-02-28T12:56:59.661Z,101072.97
2023-02-28T12:59:11.456Z,101070.75
2023-02-28T13:01:28.986Z,101067.72
2023-02-28T13:04:19.319Z,101064.63
2023-02-28T13:06:39.381Z,101061.28
2023-02-28T13:08:58.214Z,101062.94
2023-02-28T13:11:00.193Z,101055.59
2023-02-28T13:13:04.843Z,101051.06
2023-02-28T13:15:29.457Z,101046.59
2023-02-28T13:17:31.540Z,101051.56
2023-02-28T13:19:35.642Z,101046.84
2023-02-28T13:21:44.407Z,101039.50
2023-02-28T13:23:48.044Z,101052.63
2023-02-28T13:25:54.515Z,101038.72
2023-02-28T13:28:01.892Z,101040.53
2023-02-28T13:30:42.345Z,101043.94
2023-02-28T13:32:43.854Z,101041.63
2023-02-28T13:35:08.368Z,101036.38
2023-02-28T13:37:18.873Z,101032.44
2023-02-28T13:39:36.404Z,101037.22
2023-02-28T13:41:45.313Z,101036.66
2023-02-28T13:44:18.897Z,101036.47
2023-02-28T13:46:20.325Z,101033.03
2023-02-28T13:48:27.847Z,101028.19
2023-02-28T13:50:39.590Z,101038.00
2023-02-28T13:52:49.802Z,101032.88
2023-02-28T13:55:03.674Z,101025.91
2023-02-28T13:57:39.206Z,101027.56
2023-02-28T14:00:02.326Z,101029.25
2023-02-28T14:02:34.421Z,101022.03
2023-02-28T14:04:50.277Z,101018.03
2023-02-28T14:06:54.466Z,101020.34
2023-02-28T14:09:09.230Z,101008.91
2023-02-28T14:11:35.165Z,101010.00
2023-02-28T14:13:45.722Z,101013.88
2023-02-28T14:15:50.237Z,101009.97
2023-02-28T14:17:56.105Z,101011.84
2023-02-28T14:19:59.637Z,101013.75
2023-02-28T14:22:13.584Z,101002.34
2023-02-28T14:24:36.436Z,101010.53
2023-02-28T14:26:56.012Z,101012.03
2023-02-28T14:29:16.488Z,101017.91
2023-02-28T14:31:30.763Z,101016.78
2023-02-28T14:34:09.398Z,101017.81
2023-02-28T14:36:28.780Z,101017.84
2023-02-28T14:38:36.140Z,101018.84
2023-02-28T14:40:39.174Z,101013.63
2023-02-28T14:42:44.738Z,101018.19
2023-02-28T14:44:56.111Z,101017.00
2023-02-28T14:47:09.777Z,101016.03
2023-02-28T14:49:20.355Z,101015.47
2023-02-28T14:51:24.593Z,101009.13
2023-02-28T14:53:30.265Z,101010.84
2023-02-28T14:55:35.175Z,101007.19
2023-02-28T14:57:42.539Z,101013.78
2023-02-28T14:59:43.932Z,101009.19
2023-02-28T15:01:45.359Z,101001.41
2023-02-28T15:03:48.180Z,100991.63
2023-02-28T15:05:58.583Z,100990.16
2023-02-28T15:08:07.404Z,100990.78
2023-02-28T15:10:23.680Z,100989.38
2023-02-28T15:14:33.088Z,100996.81
2023-02-28T15:16:41.214Z,100996.94
2023-02-28T15:18:53.809Z,100995.59
2023-02-28T15:20:56.824Z,100989.81
2023-02-28T15:22:58.583Z,100976.31
2023-02-28T15:25:00.246Z,100978.09
2023-02-28T15:27:10.589Z,100983.97
2023-02-28T15:29:20.047Z,100971.31
2023-02-28T15:31:46.829Z,100970.53
2023-02-28T15:33:58.050Z,100978.28
2023-02-28T15:36:17.521Z,100975.78
2023-02-28T15:38:25.440Z,100975.75
2023-02-28T15:40:38.646Z,100976.38
2023-02-28T15:42:40.673Z,100981.00
2023-02-28T15:44:42.066Z,100985.53
2023-02-28T15:46:54.290Z,100967.13
2023-02-28T15:48:57.600Z,100975.22
2023-02-28T15:51:28.406Z,100990.28
2023-02-28T15:53:34.301Z,100979.06
2023-02-28T15:55:37.891Z,100986.38
2023-02-28T15:57:41.137Z,100979.00
2023-02-28T15:59:50.991Z,100981.34
2023-02-28T16:02:10.705Z,100993.16
2023-02-28T16:04:18.063Z,100985.13
2023-02-28T16:06:22.508Z,100992.44
2023-02-28T16:08:23.884Z,100998.19
2023-02-28T16:10:27.826Z,100992.22
2023-02-28T16:12:32.464Z,101003.28
2023-02-28T16:14:36.355Z,101004.09
2023-02-28T16:16:43.950Z,101005.97
2023-02-28T16:18:45.991Z,101016.66
2023-02-28T16:20:47.567Z,101021.91
2023-02-28T16:22:49.001Z,101026.44
2023-02-28T16:24:50.577Z,101025.56
2023-02-28T16:26:54.541Z,101026.53
2023-02-28T16:28:56.030Z,101024.97
2023-02-28T16:30:58.093Z,101029.72
2023-02-28T16:32:59.775Z,101021.78
2023-02-28T16:35:01.496Z,101021.84
2023-02-28T16:37:02.993Z,101020.97
2023-02-28T16:39:04.530Z,101024.97
2023-02-28T16:41:06.462Z,101034.44
2023-02-28T16:43:14.199Z,101031.84
2023-02-28T16:45:21.014Z,101032.91
2023-02-28T16:47:22.952Z,101038.59
2023-02-28T16:49:24.385Z,101036.25
2023-02-28T16:51:25.796Z,101038.56
2023-02-28T16:53:27.204Z,101028.88
2023-02-28T16:55:28.897Z,101036.56
2023-02-28T16:57:31.477Z,101031.06
2023-02-28T16:59:34.378Z,101040.47
2023-02-28T17:01:36.088Z,101048.09
2023-02-28T17:03:38.353Z,101047.97
2023-02-28T17:05:40.601Z,101048.72
2023-02-28T17:07:43.086Z,101044.22
2023-02-28T17:09:46.787Z,101048.19
2023-02-28T17:11:48.928Z,101050.63
2023-02-28T17:13:50.338Z,101048.66
2023-02-28T17:15:51.913Z,101049.03
2023-02-28T17:17:54.272Z,101051.94
2023-02-28T17:19:55.674Z,101052.66
2023-02-28T17:21:57.202Z,101054.22
2023-02-28T17:23:59.381Z,101060.31
2023-02-28T17:26:00.849Z,101062.38
2023-02-28T17:28:02.265Z,101062.94
2023-02-28T17:30:14.197Z,101070.06
2023-02-28T17:32:18.114Z,101066.94
2023-02-28T17:34:20.849Z,101068.84
2023-02-28T17:36:26.706Z,101070.66
2023-02-28T17:38:28.386Z,101073.69
2023-02-28T17:40:29.823Z,101077.13
2023-02-28T17:42:31.289Z,101066.13
2023-02-28T17:44:32.702Z,101070.63
2023-02-28T17:46:34.221Z,101070.25
2023-02-28T17:48:36.897Z,101065.00
2023-02-28T17:50:38.326Z,101071.03
2023-02-28T17:52:39.690Z,101066.94
2023-02-28T17:54:41.138Z,101066.22
2023-02-28T17:56:45.669Z,101071.97
2023-02-28T17:58:47.908Z,101076.75
2023-02-28T18:00:54.555Z,101082.81
2023-02-28T18:02:56.003Z,101071.41
2023-02-28T18:04:58.914Z,101075.81
2023-02-28T18:07:01.013Z,101077.97
2023-02-28T18:09:02.436Z,101081.53
2023-02-28T18:11:04.024Z,101079.59
2023-02-28T18:13:05.481Z,101083.16
2023-02-28T18:15:07.260Z,101080.94
2023-02-28T18:17:13.132Z,101087.38
2023-02-28T18:19:15.823Z,101084.78
2023-02-28T18:21:17.946Z,101090.78
2023-02-28T18:23:21.076Z,101079.53
2023-02-28T18:25:22.999Z,101080.88
2023-02-28T18:27:24.414Z,101078.66
2023-02-28T18:29:27.574Z,101079.06
2023-02-28T18:31:28.979Z,101085.22
2023-02-28T18:33:30.414Z,101077.41
2023-02-28T18:35:35.381Z,101086.31
2023-02-28T18:37:38.276Z,101080.66
2023-02-28T18:39:39.806Z,101083.97
2023-02-28T18:41:41.608Z,101085.03
2023-02-28T18:43:43.377Z,101079.13
2023-02-28T18:45:44.913Z,101084.72
2023-02-28T18:47:46.348Z,101073.63
2023-02-28T18:49:47.726Z,101079.91
2023-02-28T18:51:49.231Z,101076.72
2023-02-28T18:53:50.849Z,101082.06
2023-02-28T18:55:52.224Z,101086.56
2023-02-28T18:57:54.008Z,101081.50
2023-02-28T18:59:55.826Z,101082.47
2023-02-28T19:01:58.547Z,101084.50
2023-02-28T19:04:10.662Z,101083.41
2023-02-28T19:06:12.288Z,101086.66
2023-02-28T19:08:15.498Z,101082.25
2023-02-28T19:10:18.056Z,101088.03
2023-02-28T19:12:20.860Z,101083.63
2023-02-28T19:14:23.172Z,101084.00
2023-02-28T19:16:30.383Z,101080.13
2023-02-28T19:18:32.884Z,101093.94
2023-02-28T19:20:37.338Z,101082.28
2023-02-28T19:22:40.440Z,101086.78
2023-02-28T19:24:42.305Z,101083.22
2023-02-28T19:26:52.385Z,101085.00
2023-02-28T19:28:54.202Z,101092.22
2023-02-28T19:30:55.828Z,101083.63
2023-02-28T19:32:57.268Z,101096.19
2023-02-28T19:34:58.668Z,101094.41
2023-02-28T19:37:00.093Z,101097.00
2023-02-28T19:39:01.552Z,101105.19
2023-02-28T19:41:04.760Z,101105.53
2023-02-28T19:43:06.927Z,101105.94
2023-02-28T19:45:10.144Z,101099.06
2023-02-28T19:47:12.769Z,101102.88
2023-02-28T19:49:14.248Z,101104.91
2023-02-28T19:53:24.802Z,101099.22
2023-02-28T19:55:26.175Z,101111.41
2023-02-28T19:57:27.702Z,101105.75
2023-02-28T19:59:38.159Z,101106.84
2023-02-28T20:01:40.466Z,101106.00
2023-02-28T20:03:42.382Z,101107.06
2023-02-28T20:05:44.429Z,101110.75
2023-02-28T20:07:46.044Z,101113.72
2023-02-28T20:09:48.213Z,101113.03
2023-02-28T20:11:50.528Z,101126.28
2023-02-28T20:13:56.885Z,101114.31
2023-02-28T20:16:00.837Z,101114.56
2023-02-28T20:18:02.225Z,101112.94
2023-02-28T20:20:04.002Z,101113.88
2023-02-28T20:22:06.017Z,101106.31
2023-02-28T20:24:07.645Z,101108.19
2023-02-28T20:26:10.012Z,101104.19
2023-02-28T20:28:11.591Z,101105.25
2023-02-28T20:30:13.099Z,101101.97
2023-02-28T20:32:14.734Z,101109.03
2023-02-28T20:34:17.736Z,101107.63
2023-02-28T20:36:21.234Z,101100.22
2023-02-28T20:38:22.704Z,101099.63
2023-02-28T20:40:24.098Z,101095.47
2023-02-28T20:42:25.521Z,101098.06
2023-02-28T20:44:26.905Z,101104.59
2023-02-28T20:46:29.614Z,101105.53
2023-02-28T20:48:32.406Z,101103.03
2023-02-28T20:50:33.800Z,101111.06
2023-02-28T20:52:35.156Z,101110.38
2023-02-28T20:54:36.576Z,101114.16
2023-02-28T20:56:38.420Z,101119.47
2023-02-28T20:58:40.157Z,101118.06
2023-02-28T21:00:41.554Z,101108.84
2023-02-28T21:02:43.015Z,101106.34
2023-02-28T21:04:44.441Z,101106.47
2023-02-28T21:06:51.681Z,101111.91
2023-02-28T21:08:53.029Z,101115.56
2023-02-28T21:10:54.533Z,101118.41
2023-02-28T21:12:57.839Z,101116.63
2023-02-28T21:14:59.284Z,101123.00
2023-02-28T21:17:00.822Z,101121.59
2023-02-28T21:19:05.138Z,101117.56
2023-02-28T21:21:14.025Z,101122.16
2023-02-28T21:23:15.444Z,101124.06
2023-02-28T21:25:17.004Z,101122.50
2023-02-28T21:27:18.397Z,101116.84
2023-02-28T21:29:19.806Z,101121.53
2023-02-28T21:31:23.583Z,101117.28
2023-02-28T21:33:25.407Z,101123.44
2023-02-28T21:35:26.864Z,101117.75
2023-02-28T21:37:28.268Z,101124.00
2023-02-28T21:39:30.178Z,101120.81
2023-02-28T21:41:31.632Z,101120.09
2023-02-28T21:43:33.426Z,101114.41
2023-02-28T21:45:34.829Z,101118.78
2023-02-28T21:47:36.246Z,101118.19
2023-02-28T21:49:38.494Z,101108.88
2023-02-28T21:51:40.093Z,101117.09
2023-02-28T21:53:42.718Z,101113.66
2023-02-28T21:55:44.079Z,101120.00
2023-02-28T21:57:45.490Z,101114.13
2023-02-28T21:59:46.960Z,101112.34
2023-02-28T22:01:54.968Z,101113.63
2023-02-28T22:03:58.171Z,101117.03
2023-02-28T22:05:59.581Z,101121.63
2023-02-28T22:08:00.996Z,101116.56
2023-02-28T22:10:02.379Z,101119.34
2023-02-28T22:12:03.869Z,101120.31
2023-02-28T22:14:06.815Z,101120.56
2023-02-28T22:16:13.678Z,101121.47
2023-02-28T22:18:15.113Z,101114.16
2023-02-28T22:20:16.598Z,101123.56
2023-02-28T22:22:18.003Z,101125.56
2023-02-28T22:24:23.216Z,101130.97
2023-02-28T22:26:24.632Z,101126.00
2023-02-28T22:28:27.408Z,101134.00
2023-02-28T22:30:28.797Z,101128.91
2023-02-28T22:32:30.270Z,101131.75
2023-02-28T22:34:31.730Z,101133.50
2023-02-28T22:36:33.464Z,101132.66
2023-02-28T22:38:35.630Z,101123.44
2023-02-28T22:40:38.009Z,101120.25
2023-02-28T22:42:39.435Z,101121.22
2023-02-28T22:44:40.944Z,101115.19
2023-02-28T22:46:42.366Z,101112.81
2023-02-28T22:48:43.812Z,101118.19
2023-02-28T22:50:45.190Z,101116.66
2023-02-28T22:52:46.598Z,101115.22
2023-02-28T22:54:51.286Z,101120.41
2023-02-28T22:56:52.673Z,101117.19
2023-02-28T22:58:57.064Z,101118.88
2023-02-28T23:01:13.855Z,101120.63
2023-02-28T23:03:15.327Z,101119.19
2023-02-28T23:05:17.027Z,101123.88
2023-02-28T23:07:18.427Z,101124.06
2023-02-28T23:09:21.538Z,101125.13
2023-02-28T23:11:32.206Z,101125.13
2023-02-28T23:13:33.739Z,101131.34
2023-02-28T23:15:35.220Z,101122.66
2023-02-28T23:17:36.593Z,101134.03
2023-02-28T23:19:38.207Z,101129.06
2023-02-28T23:21:40.238Z,101136.03
2023-02-28T23:23:41.668Z,101132.81
2023-02-28T23:25:43.082Z,101134.47
2023-02-28T23:27:44.654Z,101135.41
2023-02-28T23:29:46.096Z,101132.81
2023-02-28T23:31:48.258Z,101134.56
2023-02-28T23:33:49.780Z,101131.19
2023-02-28T23:35:51.245Z,101134.69
2023-02-28T23:37:52.649Z,101136.38
2023-02-28T23:39:54.075Z,101135.63
2023-02-28T23:41:55.622Z,101141.03
2023-02-28T23:43:57.167Z,101141.84
2023-02-28T23:45:58.823Z,101142.06
2023-02-28T23:50:25.989Z,101144.66
2023-02-28T23:52:27.412Z,101149.94
2023-02-28T23:54:29.618Z,101148.09
2023-02-28T23:56:32.129Z,101156.88
2023-02-28T23:58:34.102Z,101148.19
